sensor_id;sensor_type;location;lat;lon;timestamp;P1;durP1;ratioP1;P2;durP2;ratioP2
73154;SDS011;61364;52.418;7.382;2022-11-12T00:00:08;6.91;;;6.91;;
73154;SDS011;61364;52.418;7.382;2022-11-12T00:02:34;6.83;;;6.83;;
73154;SDS011;61364;52.418;7.382;2022-11-12T00:05:00;7.00;;;7.00;;
73154;SDS011;61364;52.418;7.382;2022-11-12T00:07:31;7.18;;;7.18;;
73154;SDS011;61364;52.418;7.382;2022-11-12T00:09:57;7.68;;;7.68;;
73154;SDS011;61364;52.418;7.382;2022-11-12T00:12:22;8.18;;;8.18;;
73154;SDS011;61364;52.418;7.382;2022-11-12T00:14:48;8.12;;;8.12;;
73154;SDS011;61364;52.418;7.382;2022-11-12T00:17:14;7.95;;;7.95;;
73154;SDS011;61364;52.418;7.382;2022-11-12T00:19:39;7.90;;;7.90;;
73154;SDS011;61364;52.418;7.382;2022-11-12T00:24:34;7.62;;;7.62;;
73154;SDS011;61364;52.418;7.382;2022-11-12T00:27:07;7.69;;;7.69;;
73154;SDS011;61364;52.418;7.382;2022-11-12T00:29:33;8.52;;;8.52;;
73154;SDS011;61364;52.418;7.382;2022-11-12T00:31:59;8.30;;;8.30;;
73154;SDS011;61364;52.418;7.382;2022-11-12T00:34:27;7.72;;;7.72;;
73154;SDS011;61364;52.418;7.382;2022-11-12T00:37:09;7.89;;;7.89;;
73154;SDS011;61364;52.418;7.382;2022-11-12T00:39:36;7.42;;;7.42;;
73154;SDS011;61364;52.418;7.382;2022-11-12T00:42:08;7.15;;;7.15;;
73154;SDS011;61364;52.418;7.382;2022-11-12T00:44:33;7.02;;;7.02;;
73154;SDS011;61364;52.418;7.382;2022-11-12T00:47:00;7.54;;;7.54;;
73154;SDS011;61364;52.418;7.382;2022-11-12T00:49:26;7.09;;;7.09;;
73154;SDS011;61364;52.418;7.382;2022-11-12T00:51:52;5.95;;;5.95;;
73154;SDS011;61364;52.418;7.382;2022-11-12T00:54:28;5.60;;;5.60;;
73154;SDS011;61364;52.418;7.382;2022-11-12T00:56:54;6.80;;;6.80;;
73154;SDS011;61364;52.418;7.382;2022-11-12T00:59:19;8.09;;;8.09;;
73154;SDS011;61364;52.418;7.382;2022-11-12T01:04:29;7.78;;;7.78;;
73154;SDS011;61364;52.418;7.382;2022-11-12T01:07:07;7.60;;;7.60;;
73154;SDS011;61364;52.418;7.382;2022-11-12T01:09:33;7.69;;;7.69;;
73154;SDS011;61364;52.418;7.382;2022-11-12T01:14:35;7.73;;;7.73;;
73154;SDS011;61364;52.418;7.382;2022-11-12T01:17:00;7.86;;;7.86;;
73154;SDS011;61364;52.418;7.382;2022-11-12T01:19:26;7.85;;;7.85;;
73154;SDS011;61364;52.418;7.382;2022-11-12T01:21:54;8.13;;;8.13;;
73154;SDS011;61364;52.418;7.382;2022-11-12T01:26:49;8.27;;;8.27;;
73154;SDS011;61364;52.418;7.382;2022-11-12T01:29:23;8.10;;;8.10;;
73154;SDS011;61364;52.418;7.382;2022-11-12T01:31:48;8.45;;;8.45;;
73154;SDS011;61364;52.418;7.382;2022-11-12T01:34:14;7.84;;;7.84;;
73154;SDS011;61364;52.418;7.382;2022-11-12T01:36:43;8.50;;;8.50;;
73154;SDS011;61364;52.418;7.382;2022-11-12T01:39:08;10.29;;;10.29;;
73154;SDS011;61364;52.418;7.382;2022-11-12T01:44:22;9.62;;;9.62;;
73154;SDS011;61364;52.418;7.382;2022-11-12T01:50:15;8.40;;;8.40;;
73154;SDS011;61364;52.418;7.382;2022-11-12T01:52:37;9.22;;;9.22;;
73154;SDS011;61364;52.418;7.382;2022-11-12T01:55:23;9.31;;;9.31;;
73154;SDS011;61364;52.418;7.382;2022-11-12T02:00:35;11.74;;;11.74;;
73154;SDS011;61364;52.418;7.382;2022-11-12T02:03:01;11.30;;;11.30;;
73154;SDS011;61364;52.418;7.382;2022-11-12T02:05:29;11.45;;;11.45;;
73154;SDS011;61364;52.418;7.382;2022-11-12T02:08:15;11.02;;;11.02;;
73154;SDS011;61364;52.418;7.382;2022-11-12T02:10:43;11.21;;;11.21;;
73154;SDS011;61364;52.418;7.382;2022-11-12T02:16:04;10.87;;;10.87;;
73154;SDS011;61364;52.418;7.382;2022-11-12T02:21:04;10.85;;;10.85;;
73154;SDS011;61364;52.418;7.382;2022-11-12T02:23:33;10.56;;;10.56;;
73154;SDS011;61364;52.418;7.382;2022-11-12T02:25:59;11.34;;;11.34;;
73154;SDS011;61364;52.418;7.382;2022-11-12T02:28:26;12.11;;;12.11;;
73154;SDS011;61364;52.418;7.382;2022-11-12T02:30:53;11.65;;;11.65;;
73154;SDS011;61364;52.418;7.382;2022-11-12T02:33:21;12.54;;;12.54;;
73154;SDS011;61364;52.418;7.382;2022-11-12T02:35:46;11.85;;;11.85;;
73154;SDS011;61364;52.418;7.382;2022-11-12T02:38:14;11.34;;;11.34;;
73154;SDS011;61364;52.418;7.382;2022-11-12T02:40:39;11.66;;;11.66;;
73154;SDS011;61364;52.418;7.382;2022-11-12T02:43:07;11.26;;;11.26;;
73154;SDS011;61364;52.418;7.382;2022-11-12T02:45:33;11.50;;;11.50;;
73154;SDS011;61364;52.418;7.382;2022-11-12T02:48:06;12.04;;;12.04;;
73154;SDS011;61364;52.418;7.382;2022-11-12T02:50:31;13.37;;;13.37;;
73154;SDS011;61364;52.418;7.382;2022-11-12T02:53:03;12.29;;;12.29;;
73154;SDS011;61364;52.418;7.382;2022-11-12T02:55:29;11.51;;;11.51;;
73154;SDS011;61364;52.418;7.382;2022-11-12T02:57:58;11.34;;;11.34;;
73154;SDS011;61364;52.418;7.382;2022-11-12T03:00:30;11.13;;;11.13;;
73154;SDS011;61364;52.418;7.382;2022-11-12T03:02:56;11.88;;;11.88;;
73154;SDS011;61364;52.418;7.382;2022-11-12T03:05:25;11.18;;;11.18;;
73154;SDS011;61364;52.418;7.382;2022-11-12T03:08:03;11.17;;;11.17;;
73154;SDS011;61364;52.418;7.382;2022-11-12T03:10:29;11.53;;;11.53;;
73154;SDS011;61364;52.418;7.382;2022-11-12T03:12:56;11.40;;;11.40;;
73154;SDS011;61364;52.418;7.382;2022-11-12T03:18:10;11.52;;;11.52;;
73154;SDS011;61364;52.418;7.382;2022-11-12T03:20:35;11.74;;;11.74;;
73154;SDS011;61364;52.418;7.382;2022-11-12T03:23:02;11.42;;;11.42;;
73154;SDS011;61364;52.418;7.382;2022-11-12T03:25:28;11.26;;;11.26;;
73154;SDS011;61364;52.418;7.382;2022-11-12T03:28:12;11.32;;;11.32;;
73154;SDS011;61364;52.418;7.382;2022-11-12T03:30:39;11.10;;;11.10;;
73154;SDS011;61364;52.418;7.382;2022-11-12T03:33:06;10.86;;;10.86;;
73154;SDS011;61364;52.418;7.382;2022-11-12T03:35:34;10.85;;;10.85;;
73154;SDS011;61364;52.418;7.382;2022-11-12T03:38:01;11.15;;;11.15;;
73154;SDS011;61364;52.418;7.382;2022-11-12T03:40:35;10.82;;;10.82;;
73154;SDS011;61364;52.418;7.382;2022-11-12T03:43:04;11.08;;;11.08;;
73154;SDS011;61364;52.418;7.382;2022-11-12T03:45:29;10.85;;;10.85;;
73154;SDS011;61364;52.418;7.382;2022-11-12T03:50:26;10.48;;;10.48;;
73154;SDS011;61364;52.418;7.382;2022-11-12T03:52:54;10.46;;;10.46;;
73154;SDS011;61364;52.418;7.382;2022-11-12T03:55:21;10.65;;;10.65;;
73154;SDS011;61364;52.418;7.382;2022-11-12T04:00:24;10.18;;;10.18;;
73154;SDS011;61364;52.418;7.382;2022-11-12T04:02:51;10.50;;;10.50;;
73154;SDS011;61364;52.418;7.382;2022-11-12T04:08:19;11.06;;;11.06;;
73154;SDS011;61364;52.418;7.382;2022-11-12T04:11:01;10.91;;;10.91;;
73154;SDS011;61364;52.418;7.382;2022-11-12T04:13:27;11.41;;;11.41;;
73154;SDS011;61364;52.418;7.382;2022-11-12T04:18:40;10.62;;;10.62;;
73154;SDS011;61364;52.418;7.382;2022-11-12T04:24:32;10.64;;;10.64;;
73154;SDS011;61364;52.418;7.382;2022-11-12T04:27:27;11.23;;;11.23;;
73154;SDS011;61364;52.418;7.382;2022-11-12T04:29:54;11.16;;;11.16;;
73154;SDS011;61364;52.418;7.382;2022-11-12T04:32:39;11.16;;;11.16;;
73154;SDS011;61364;52.418;7.382;2022-11-12T04:35:06;11.29;;;11.29;;
73154;SDS011;61364;52.418;7.382;2022-11-12T04:37:33;11.29;;;11.29;;
73154;SDS011;61364;52.418;7.382;2022-11-12T04:40:15;11.74;;;11.74;;
73154;SDS011;61364;52.418;7.382;2022-11-12T04:43:00;10.86;;;10.86;;
73154;SDS011;61364;52.418;7.382;2022-11-12T04:48:16;10.77;;;10.77;;
73154;SDS011;61364;52.418;7.382;2022-11-12T04:50:43;10.43;;;10.43;;
73154;SDS011;61364;52.418;7.382;2022-11-12T04:53:12;10.59;;;10.59;;
73154;SDS011;61364;52.418;7.382;2022-11-12T04:55:38;10.92;;;10.92;;
73154;SDS011;61364;52.418;7.382;2022-11-12T04:58:04;11.14;;;11.14;;
73154;SDS011;61364;52.418;7.382;2022-11-12T05:00:30;10.82;;;10.82;;
73154;SDS011;61364;52.418;7.382;2022-11-12T05:02:55;11.18;;;11.18;;
73154;SDS011;61364;52.418;7.382;2022-11-12T05:05:22;10.87;;;10.87;;
73154;SDS011;61364;52.418;7.382;2022-11-12T05:07:48;10.98;;;10.98;;
73154;SDS011;61364;52.418;7.382;2022-11-12T05:13:02;10.51;;;10.51;;
73154;SDS011;61364;52.418;7.382;2022-11-12T05:15:33;10.03;;;10.03;;
73154;SDS011;61364;52.418;7.382;2022-11-12T05:17:59;10.41;;;10.41;;
73154;SDS011;61364;52.418;7.382;2022-11-12T05:20:30;10.48;;;10.48;;
73154;SDS011;61364;52.418;7.382;2022-11-12T05:22:55;10.55;;;10.55;;
73154;SDS011;61364;52.418;7.382;2022-11-12T05:25:20;10.49;;;10.49;;
73154;SDS011;61364;52.418;7.382;2022-11-12T05:27:52;10.19;;;10.19;;
73154;SDS011;61364;52.418;7.382;2022-11-12T05:30:18;9.96;;;9.96;;
73154;SDS011;61364;52.418;7.382;2022-11-12T05:32:44;10.28;;;10.28;;
73154;SDS011;61364;52.418;7.382;2022-11-12T05:35:09;10.20;;;10.20;;
73154;SDS011;61364;52.418;7.382;2022-11-12T05:37:35;9.72;;;9.72;;
73154;SDS011;61364;52.418;7.382;2022-11-12T05:40:00;9.60;;;9.60;;
73154;SDS011;61364;52.418;7.382;2022-11-12T05:42:26;10.41;;;10.41;;
73154;SDS011;61364;52.418;7.382;2022-11-12T05:44:52;11.12;;;11.12;;
73154;SDS011;61364;52.418;7.382;2022-11-12T05:50:03;10.81;;;10.81;;
73154;SDS011;61364;52.418;7.382;2022-11-12T05:52:29;9.73;;;9.73;;
73154;SDS011;61364;52.418;7.382;2022-11-12T05:54:55;9.44;;;9.44;;
73154;SDS011;61364;52.418;7.382;2022-11-12T05:57:26;8.19;;;8.19;;
73154;SDS011;61364;52.418;7.382;2022-11-12T05:59:52;8.18;;;8.18;;
73154;SDS011;61364;52.418;7.382;2022-11-12T06:02:18;9.57;;;9.57;;
73154;SDS011;61364;52.418;7.382;2022-11-12T06:04:44;10.65;;;10.65;;
73154;SDS011;61364;52.418;7.382;2022-11-12T06:07:10;8.03;;;8.03;;
73154;SDS011;61364;52.418;7.382;2022-11-12T06:09:35;7.31;;;7.31;;
73154;SDS011;61364;52.418;7.382;2022-11-12T06:12:12;7.28;;;7.28;;
73154;SDS011;61364;52.418;7.382;2022-11-12T06:14:38;7.75;;;7.75;;
73154;SDS011;61364;52.418;7.382;2022-11-12T06:17:04;8.77;;;8.77;;
73154;SDS011;61364;52.418;7.382;2022-11-12T06:19:30;8.00;;;8.00;;
73154;SDS011;61364;52.418;7.382;2022-11-12T06:21:55;8.70;;;8.70;;
73154;SDS011;61364;52.418;7.382;2022-11-12T06:24:25;10.55;;;10.55;;
73154;SDS011;61364;52.418;7.382;2022-11-12T06:26:58;11.65;;;11.65;;
73154;SDS011;61364;52.418;7.382;2022-11-12T06:32:22;10.44;;;10.44;;
73154;SDS011;61364;52.418;7.382;2022-11-12T06:37:34;11.23;;;11.23;;
73154;SDS011;61364;52.418;7.382;2022-11-12T06:40:00;10.98;;;10.98;;
73154;SDS011;61364;52.418;7.382;2022-11-12T06:42:25;11.21;;;11.21;;
73154;SDS011;61364;52.418;7.382;2022-11-12T06:45:04;11.98;;;11.98;;
73154;SDS011;61364;52.418;7.382;2022-11-12T06:47:30;11.95;;;11.95;;
73154;SDS011;61364;52.418;7.382;2022-11-12T06:49:57;11.56;;;11.56;;
73154;SDS011;61364;52.418;7.382;2022-11-12T06:52:23;11.94;;;11.94;;
73154;SDS011;61364;52.418;7.382;2022-11-12T06:54:50;12.29;;;12.29;;
73154;SDS011;61364;52.418;7.382;2022-11-12T06:57:15;14.91;;;14.91;;
73154;SDS011;61364;52.418;7.382;2022-11-12T06:59:41;14.56;;;14.56;;
73154;SDS011;61364;52.418;7.382;2022-11-12T07:02:06;12.85;;;12.85;;
73154;SDS011;61364;52.418;7.382;2022-11-12T07:04:34;12.31;;;12.31;;
73154;SDS011;61364;52.418;7.382;2022-11-12T07:06:59;11.93;;;11.93;;
73154;SDS011;61364;52.418;7.382;2022-11-12T07:09:25;11.84;;;11.84;;
73154;SDS011;61364;52.418;7.382;2022-11-12T07:11:50;11.99;;;11.99;;
73154;SDS011;61364;52.418;7.382;2022-11-12T07:17:14;15.52;;;15.52;;
73154;SDS011;61364;52.418;7.382;2022-11-12T07:19:42;15.78;;;15.78;;
73154;SDS011;61364;52.418;7.382;2022-11-12T07:22:07;14.15;;;14.15;;
73154;SDS011;61364;52.418;7.382;2022-11-12T07:24:33;14.28;;;14.28;;
73154;SDS011;61364;52.418;7.382;2022-11-12T07:27:16;13.59;;;13.59;;
73154;SDS011;61364;52.418;7.382;2022-11-12T07:29:42;13.43;;;13.43;;
73154;SDS011;61364;52.418;7.382;2022-11-12T07:32:07;12.82;;;12.82;;
73154;SDS011;61364;52.418;7.382;2022-11-12T07:34:33;12.94;;;12.94;;
73154;SDS011;61364;52.418;7.382;2022-11-12T07:36:58;13.04;;;13.04;;
73154;SDS011;61364;52.418;7.382;2022-11-12T07:39:24;13.37;;;13.37;;
73154;SDS011;61364;52.418;7.382;2022-11-12T07:41:49;12.14;;;12.14;;
73154;SDS011;61364;52.418;7.382;2022-11-12T07:44:16;12.21;;;12.21;;
73154;SDS011;61364;52.418;7.382;2022-11-12T07:46:41;11.93;;;11.93;;
73154;SDS011;61364;52.418;7.382;2022-11-12T07:49:07;12.65;;;12.65;;
73154;SDS011;61364;52.418;7.382;2022-11-12T07:51:34;12.64;;;12.64;;
73154;SDS011;61364;52.418;7.382;2022-11-12T07:53:59;12.80;;;12.80;;
73154;SDS011;61364;52.418;7.382;2022-11-12T07:56:25;12.93;;;12.93;;
73154;SDS011;61364;52.418;7.382;2022-11-12T07:58:52;13.08;;;13.08;;
73154;SDS011;61364;52.418;7.382;2022-11-12T08:04:04;12.83;;;12.83;;
73154;SDS011;61364;52.418;7.382;2022-11-12T08:06:32;14.02;;;14.02;;
73154;SDS011;61364;52.418;7.382;2022-11-12T08:08:59;16.46;;;16.46;;
73154;SDS011;61364;52.418;7.382;2022-11-12T08:11:26;17.51;;;17.51;;
73154;SDS011;61364;52.418;7.382;2022-11-12T08:13:52;17.14;;;17.14;;
73154;SDS011;61364;52.418;7.382;2022-11-12T08:16:18;19.44;;;19.44;;
73154;SDS011;61364;52.418;7.382;2022-11-12T08:18:43;21.39;;;21.39;;
73154;SDS011;61364;52.418;7.382;2022-11-12T08:21:10;24.90;;;24.90;;
73154;SDS011;61364;52.418;7.382;2022-11-12T08:23:44;26.17;;;26.17;;
73154;SDS011;61364;52.418;7.382;2022-11-12T08:26:11;23.34;;;23.34;;
73154;SDS011;61364;52.418;7.382;2022-11-12T08:28:37;21.20;;;21.20;;
73154;SDS011;61364;52.418;7.382;2022-11-12T08:31:07;19.39;;;19.39;;
73154;SDS011;61364;52.418;7.382;2022-11-12T08:33:34;17.98;;;17.98;;
73154;SDS011;61364;52.418;7.382;2022-11-12T08:36:16;17.13;;;17.13;;
73154;SDS011;61364;52.418;7.382;2022-11-12T08:38:43;17.82;;;17.82;;
73154;SDS011;61364;52.418;7.382;2022-11-12T08:41:09;16.82;;;16.82;;
73154;SDS011;61364;52.418;7.382;2022-11-12T08:43:48;16.97;;;16.97;;
73154;SDS011;61364;52.418;7.382;2022-11-12T08:46:20;17.55;;;17.55;;
73154;SDS011;61364;52.418;7.382;2022-11-12T08:48:46;18.20;;;18.20;;
73154;SDS011;61364;52.418;7.382;2022-11-12T08:51:14;18.64;;;18.64;;
73154;SDS011;61364;52.418;7.382;2022-11-12T08:53:39;17.81;;;17.81;;
73154;SDS011;61364;52.418;7.382;2022-11-12T08:56:05;16.87;;;16.87;;
73154;SDS011;61364;52.418;7.382;2022-11-12T08:58:31;17.42;;;17.42;;
73154;SDS011;61364;52.418;7.382;2022-11-12T09:00:56;18.61;;;18.61;;
73154;SDS011;61364;52.418;7.382;2022-11-12T09:03:27;28.12;;;28.12;;
73154;SDS011;61364;52.418;7.382;2022-11-12T09:06:03;30.46;;;30.46;;
73154;SDS011;61364;52.418;7.382;2022-11-12T09:08:31;34.55;;;34.55;;
73154;SDS011;61364;52.418;7.382;2022-11-12T09:11:10;63.88;;;63.88;;
73154;SDS011;61364;52.418;7.382;2022-11-12T09:13:36;58.96;;;58.96;;
73154;SDS011;61364;52.418;7.382;2022-11-12T09:16:03;43.72;;;43.72;;
73154;SDS011;61364;52.418;7.382;2022-11-12T09:18:30;25.72;;;25.72;;
73154;SDS011;61364;52.418;7.382;2022-11-12T09:21:03;30.30;;;30.30;;
73154;SDS011;61364;52.418;7.382;2022-11-12T09:23:29;38.31;;;38.30;;
73154;SDS011;61364;52.418;7.382;2022-11-12T09:26:02;38.31;;;38.30;;
73154;SDS011;61364;52.418;7.382;2022-11-12T09:28:28;37.47;;;37.47;;
73154;SDS011;61364;52.418;7.382;2022-11-12T09:30:54;33.45;;;33.45;;
73154;SDS011;61364;52.418;7.382;2022-11-12T09:33:21;28.88;;;28.88;;
73154;SDS011;61364;52.418;7.382;2022-11-12T09:35:48;26.17;;;26.17;;
73154;SDS011;61364;52.418;7.382;2022-11-12T09:43:30;26.61;;;26.61;;
73154;SDS011;61364;52.418;7.382;2022-11-12T09:46:35;18.93;;;18.93;;
73154;SDS011;61364;52.418;7.382;2022-11-12T09:49:50;15.02;;;15.02;;
73154;SDS011;61364;52.418;7.382;2022-11-12T09:52:03;14.05;;;14.05;;
73154;SDS011;61364;52.418;7.382;2022-11-12T09:54:40;13.46;;;13.46;;
73154;SDS011;61364;52.418;7.382;2022-11-12T09:57:13;13.68;;;13.68;;
73154;SDS011;61364;52.418;7.382;2022-11-12T09:59:40;13.13;;;13.13;;
73154;SDS011;61364;52.418;7.382;2022-11-12T10:15:28;13.09;;;13.09;;
73154;SDS011;61364;52.418;7.382;2022-11-12T10:18:31;13.65;;;13.65;;
73154;SDS011;61364;52.418;7.382;2022-11-12T10:21:06;13.37;;;13.37;;
73154;SDS011;61364;52.418;7.382;2022-11-12T10:23:54;13.25;;;13.25;;
73154;SDS011;61364;52.418;7.382;2022-11-12T10:26:23;12.95;;;12.95;;
73154;SDS011;61364;52.418;7.382;2022-11-12T10:28:56;13.35;;;13.35;;
73154;SDS011;61364;52.418;7.382;2022-11-12T10:31:25;13.01;;;13.01;;
73154;SDS011;61364;52.418;7.382;2022-11-12T10:33:53;13.00;;;13.00;;
73154;SDS011;61364;52.418;7.382;2022-11-12T10:39:39;12.53;;;12.53;;
73154;SDS011;61364;52.418;7.382;2022-11-12T10:42:07;12.29;;;12.29;;
73154;SDS011;61364;52.418;7.382;2022-11-12T10:44:34;12.18;;;12.18;;
73154;SDS011;61364;52.418;7.382;2022-11-12T10:52:30;11.42;;;11.42;;
73154;SDS011;61364;52.418;7.382;2022-11-12T10:57:40;11.52;;;11.52;;
73154;SDS011;61364;52.418;7.382;2022-11-12T11:02:44;11.77;;;11.77;;
73154;SDS011;61364;52.418;7.382;2022-11-12T11:05:28;11.41;;;11.41;;
73154;SDS011;61364;52.418;7.382;2022-11-12T11:07:55;10.96;;;10.96;;
73154;SDS011;61364;52.418;7.382;2022-11-12T11:10:25;11.35;;;11.35;;
73154;SDS011;61364;52.418;7.382;2022-11-12T11:16:12;14.52;;;14.52;;
73154;SDS011;61364;52.418;7.382;2022-11-12T11:35:16;11.42;;;11.42;;
73154;SDS011;61364;52.418;7.382;2022-11-12T11:40:36;10.25;;;10.25;;
73154;SDS011;61364;52.418;7.382;2022-11-12T11:48:21;10.35;;;10.35;;
73154;SDS011;61364;52.418;7.382;2022-11-12T11:51:33;9.80;;;9.80;;
73154;SDS011;61364;52.418;7.382;2022-11-12T11:54:06;9.51;;;9.51;;
73154;SDS011;61364;52.418;7.382;2022-11-12T11:56:57;9.29;;;9.29;;
73154;SDS011;61364;52.418;7.382;2022-11-12T12:05:04;10.11;;;10.11;;
73154;SDS011;61364;52.418;7.382;2022-11-12T12:18:39;9.97;;;9.97;;
73154;SDS011;61364;52.418;7.382;2022-11-12T12:21:12;9.91;;;9.91;;
73154;SDS011;61364;52.418;7.382;2022-11-12T12:24:02;9.48;;;9.48;;
73154;SDS011;61364;52.418;7.382;2022-11-12T12:26:32;9.63;;;9.63;;
73154;SDS011;61364;52.418;7.382;2022-11-12T12:31:46;9.96;;;9.96;;
73154;SDS011;61364;52.418;7.382;2022-11-12T12:36:43;9.76;;;9.76;;
73154;SDS011;61364;52.418;7.382;2022-11-12T12:41:59;9.46;;;9.46;;
73154;SDS011;61364;52.418;7.382;2022-11-12T12:44:29;9.76;;;9.76;;
73154;SDS011;61364;52.418;7.382;2022-11-12T12:47:17;9.91;;;9.91;;
73154;SDS011;61364;52.418;7.382;2022-11-12T12:49:45;9.31;;;9.31;;
73154;SDS011;61364;52.418;7.382;2022-11-12T12:52:27;9.56;;;9.56;;
73154;SDS011;61364;52.418;7.382;2022-11-12T12:57:26;9.29;;;9.29;;
73154;SDS011;61364;52.418;7.382;2022-11-12T13:00:39;9.82;;;9.82;;
73154;SDS011;61364;52.418;7.382;2022-11-12T13:05:35;9.30;;;9.30;;
73154;SDS011;61364;52.418;7.382;2022-11-12T13:08:06;9.32;;;9.32;;
73154;SDS011;61364;52.418;7.382;2022-11-12T13:10:45;9.79;;;9.79;;
73154;SDS011;61364;52.418;7.382;2022-11-12T13:18:09;8.92;;;8.92;;
73154;SDS011;61364;52.418;7.382;2022-11-12T13:23:53;9.36;;;9.36;;
73154;SDS011;61364;52.418;7.382;2022-11-12T13:26:47;9.32;;;9.32;;
73154;SDS011;61364;52.418;7.382;2022-11-12T13:29:17;9.46;;;9.46;;
73154;SDS011;61364;52.418;7.382;2022-11-12T13:34:44;9.59;;;9.59;;
73154;SDS011;61364;52.418;7.382;2022-11-12T13:37:15;9.38;;;9.38;;
73154;SDS011;61364;52.418;7.382;2022-11-12T13:40:02;9.34;;;9.34;;
73154;SDS011;61364;52.418;7.382;2022-11-12T13:42:29;9.08;;;9.08;;
73154;SDS011;61364;52.418;7.382;2022-11-12T13:45:17;8.88;;;8.88;;
73154;SDS011;61364;52.418;7.382;2022-11-12T13:47:44;8.88;;;8.88;;
73154;SDS011;61364;52.418;7.382;2022-11-12T13:50:17;9.13;;;9.13;;
73154;SDS011;61364;52.418;7.382;2022-11-12T13:52:53;9.44;;;9.44;;
73154;SDS011;61364;52.418;7.382;2022-11-12T13:55:21;9.78;;;9.78;;
73154;SDS011;61364;52.418;7.382;2022-11-12T13:57:48;9.59;;;9.59;;
73154;SDS011;61364;52.418;7.382;2022-11-12T14:05:48;8.96;;;8.96;;
73154;SDS011;61364;52.418;7.382;2022-11-12T14:16:15;8.20;;;8.20;;
73154;SDS011;61364;52.418;7.382;2022-11-12T14:24:45;8.79;;;8.79;;
73154;SDS011;61364;52.418;7.382;2022-11-12T14:27:22;8.45;;;8.45;;
73154;SDS011;61364;52.418;7.382;2022-11-12T14:29:50;7.94;;;7.94;;
73154;SDS011;61364;52.418;7.382;2022-11-12T14:32:42;7.88;;;7.88;;
73154;SDS011;61364;52.418;7.382;2022-11-12T14:37:52;8.02;;;8.02;;
73154;SDS011;61364;52.418;7.382;2022-11-12T14:40:21;7.80;;;7.79;;
73154;SDS011;61364;52.418;7.382;2022-11-12T14:42:49;7.64;;;7.60;;
73154;SDS011;61364;52.418;7.382;2022-11-12T14:45:17;10.28;;;10.11;;
73154;SDS011;61364;52.418;7.382;2022-11-12T14:47:45;10.45;;;10.33;;
73154;SDS011;61364;52.418;7.382;2022-11-12T14:50:14;10.50;;;10.47;;
73154;SDS011;61364;52.418;7.382;2022-11-12T14:52:42;12.41;;;12.27;;
73154;SDS011;61364;52.418;7.382;2022-11-12T14:57:48;12.90;;;12.59;;
73154;SDS011;61364;52.418;7.382;2022-11-12T15:00:24;12.75;;;12.53;;
73154;SDS011;61364;52.418;7.382;2022-11-12T15:03:05;12.05;;;11.90;;
73154;SDS011;61364;52.418;7.382;2022-11-12T15:05:31;12.53;;;12.25;;
73154;SDS011;61364;52.418;7.382;2022-11-12T15:07:58;12.03;;;11.84;;
73154;SDS011;61364;52.418;7.382;2022-11-12T15:10:33;10.44;;;10.35;;
73154;SDS011;61364;52.418;7.382;2022-11-12T15:13:04;10.12;;;10.02;;
73154;SDS011;61364;52.418;7.382;2022-11-12T15:15:34;9.00;;;8.94;;
73154;SDS011;61364;52.418;7.382;2022-11-12T15:18:21;7.52;;;7.49;;
73154;SDS011;61364;52.418;7.382;2022-11-12T15:23:52;6.44;;;6.44;;
73154;SDS011;61364;52.418;7.382;2022-11-12T15:26:45;5.65;;;5.65;;
73154;SDS011;61364;52.418;7.382;2022-11-12T15:29:12;5.69;;;5.69;;
73154;SDS011;61364;52.418;7.382;2022-11-12T15:36:53;5.34;;;5.34;;
73154;SDS011;61364;52.418;7.382;2022-11-12T15:39:19;6.10;;;6.10;;
73154;SDS011;61364;52.418;7.382;2022-11-12T15:41:46;5.43;;;5.43;;
73154;SDS011;61364;52.418;7.382;2022-11-12T15:44:13;5.74;;;5.74;;
73154;SDS011;61364;52.418;7.382;2022-11-12T15:46:39;5.74;;;5.74;;
73154;SDS011;61364;52.418;7.382;2022-11-12T15:52:07;6.31;;;6.31;;
73154;SDS011;61364;52.418;7.382;2022-11-12T15:54:33;6.45;;;6.45;;
73154;SDS011;61364;52.418;7.382;2022-11-12T15:56:58;5.84;;;5.84;;
73154;SDS011;61364;52.418;7.382;2022-11-12T15:59:24;5.84;;;5.84;;
73154;SDS011;61364;52.418;7.382;2022-11-12T16:02:11;6.00;;;6.00;;
73154;SDS011;61364;52.418;7.382;2022-11-12T16:04:37;5.87;;;5.87;;
73154;SDS011;61364;52.418;7.382;2022-11-12T16:07:03;5.61;;;5.61;;
73154;SDS011;61364;52.418;7.382;2022-11-12T16:09:31;5.87;;;5.87;;
73154;SDS011;61364;52.418;7.382;2022-11-12T16:11:58;6.01;;;6.01;;
73154;SDS011;61364;52.418;7.382;2022-11-12T16:17:16;6.28;;;6.28;;
73154;SDS011;61364;52.418;7.382;2022-11-12T16:19:43;6.21;;;6.21;;
73154;SDS011;61364;52.418;7.382;2022-11-12T16:22:09;5.95;;;5.95;;
73154;SDS011;61364;52.418;7.382;2022-11-12T16:24:40;5.86;;;5.86;;
73154;SDS011;61364;52.418;7.382;2022-11-12T16:27:10;5.88;;;5.88;;
73154;SDS011;61364;52.418;7.382;2022-11-12T16:29:37;6.58;;;6.58;;
73154;SDS011;61364;52.418;7.382;2022-11-12T16:32:03;6.19;;;6.19;;
73154;SDS011;61364;52.418;7.382;2022-11-12T16:34:28;6.04;;;6.04;;
73154;SDS011;61364;52.418;7.382;2022-11-12T16:36:55;6.60;;;6.60;;
73154;SDS011;61364;52.418;7.382;2022-11-12T16:39:30;7.15;;;7.15;;
73154;SDS011;61364;52.418;7.382;2022-11-12T16:41:56;7.06;;;7.06;;
73154;SDS011;61364;52.418;7.382;2022-11-12T16:44:22;6.68;;;6.68;;
73154;SDS011;61364;52.418;7.382;2022-11-12T16:46:47;6.65;;;6.65;;
73154;SDS011;61364;52.418;7.382;2022-11-12T16:49:13;6.41;;;6.41;;
73154;SDS011;61364;52.418;7.382;2022-11-12T16:51:40;6.83;;;6.83;;
73154;SDS011;61364;52.418;7.382;2022-11-12T16:54:06;6.55;;;6.55;;
73154;SDS011;61364;52.418;7.382;2022-11-12T16:56:46;8.79;;;8.79;;
73154;SDS011;61364;52.418;7.382;2022-11-12T16:59:12;7.79;;;7.79;;
73154;SDS011;61364;52.418;7.382;2022-11-12T17:01:40;8.88;;;8.88;;
73154;SDS011;61364;52.418;7.382;2022-11-12T17:04:05;8.35;;;8.35;;
73154;SDS011;61364;52.418;7.382;2022-11-12T17:12:08;8.22;;;8.22;;
73154;SDS011;61364;52.418;7.382;2022-11-12T17:14:34;9.39;;;9.37;;
73154;SDS011;61364;52.418;7.382;2022-11-12T17:17:08;7.63;;;7.62;;
73154;SDS011;61364;52.418;7.382;2022-11-12T17:19:33;8.38;;;8.38;;
73154;SDS011;61364;52.418;7.382;2022-11-12T17:21:59;8.84;;;8.84;;
73154;SDS011;61364;52.418;7.382;2022-11-12T17:27:27;8.13;;;8.13;;
73154;SDS011;61364;52.418;7.382;2022-11-12T17:29:53;7.98;;;7.98;;
73154;SDS011;61364;52.418;7.382;2022-11-12T17:32:18;8.82;;;8.82;;
73154;SDS011;61364;52.418;7.382;2022-11-12T17:34:46;8.97;;;8.97;;
73154;SDS011;61364;52.418;7.382;2022-11-12T17:37:12;9.25;;;9.25;;
73154;SDS011;61364;52.418;7.382;2022-11-12T17:39:39;8.77;;;8.77;;
73154;SDS011;61364;52.418;7.382;2022-11-12T17:42:17;8.93;;;8.93;;
73154;SDS011;61364;52.418;7.382;2022-11-12T17:44:44;8.45;;;8.45;;
73154;SDS011;61364;52.418;7.382;2022-11-12T17:47:10;8.11;;;8.11;;
73154;SDS011;61364;52.418;7.382;2022-11-12T17:49:50;8.69;;;8.69;;
73154;SDS011;61364;52.418;7.382;2022-11-12T17:52:16;8.52;;;8.52;;
73154;SDS011;61364;52.418;7.382;2022-11-12T17:54:42;8.73;;;8.73;;
73154;SDS011;61364;52.418;7.382;2022-11-12T17:57:07;8.21;;;8.21;;
73154;SDS011;61364;52.418;7.382;2022-11-12T18:10:16;8.54;;;8.54;;
73154;SDS011;61364;52.418;7.382;2022-11-12T18:12:42;8.61;;;8.61;;
73154;SDS011;61364;52.418;7.382;2022-11-12T18:17:42;8.53;;;8.53;;
73154;SDS011;61364;52.418;7.382;2022-11-12T18:20:08;8.09;;;8.09;;
73154;SDS011;61364;52.418;7.382;2022-11-12T18:22:34;8.70;;;8.70;;
73154;SDS011;61364;52.418;7.382;2022-11-12T18:25:00;8.97;;;8.97;;
73154;SDS011;61364;52.418;7.382;2022-11-12T18:27:26;8.83;;;8.83;;
73154;SDS011;61364;52.418;7.382;2022-11-12T18:32:33;8.14;;;8.14;;